sensor_id;sensor_type;location;lat;lon;timestamp;pressure;altitude;pressure_sealevel;temperature;humidity
25944;BME280;13742;49.306;8.636;2023-07-02T00:00:20;99850.72;;;19.01;85.95
25944;BME280;13742;49.306;8.636;2023-07-02T00:01:19;99847.84;;;19.00;86.34
25944;BME280;13742;49.306;8.636;2023-07-02T00:02:20;99852.63;;;19.00;85.63
25944;BME280;13742;49.306;8.636;2023-07-02T00:03:21;99852.00;;;19.01;85.48
25944;BME280;13742;49.306;8.636;2023-07-02T00:04:20;99852.27;;;19.02;85.44
25944;BME280;13742;49.306;8.636;2023-07-02T00:05:19;99849.29;;;19.03;85.90
25944;BME280;13742;49.306;8.636;2023-07-02T00:06:19;99846.88;;;19.01;85.89
25944;BME280;13742;49.306;8.636;2023-07-02T00:07:19;99849.08;;;18.99;86.10
25944;BME280;13742;49.306;8.636;2023-07-02T00:08:22;99848.67;;;18.97;86.78
25944;BME280;13742;49.306;8.636;2023-07-02T00:09:20;99846.73;;;18.97;86.19
25944;BME280;13742;49.306;8.636;2023-07-02T00:10:20;99847.59;;;18.95;87.20
25944;BME280;13742;49.306;8.636;2023-07-02T00:11:20;99846.25;;;18.95;86.15
25944;BME280;13742;49.306;8.636;2023-07-02T00:12:19;99849.44;;;18.95;86.15
25944;BME280;13742;49.306;8.636;2023-07-02T00:13:19;99847.53;;;18.96;86.07
25944;BME280;13742;49.306;8.636;2023-07-02T00:14:19;99851.89;;;18.98;86.11
25944;BME280;13742;49.306;8.636;2023-07-02T00:15:19;99849.88;;;18.98;85.99
25944;BME280;13742;49.306;8.636;2023-07-02T00:16:19;99851.48;;;18.96;86.89
25944;BME280;13742;49.306;8.636;2023-07-02T00:17:20;99852.11;;;18.95;87.56
25944;BME280;13742;49.306;8.636;2023-07-02T00:18:19;99853.05;;;18.95;87.53
25944;BME280;13742;49.306;8.636;2023-07-02T00:19:19;99856.59;;;18.94;87.57
25944;BME280;13742;49.306;8.636;2023-07-02T00:20:19;99858.33;;;18.94;87.56
25944;BME280;13742;49.306;8.636;2023-07-02T00:21:20;99862.70;;;18.92;87.99
25944;BME280;13742;49.306;8.636;2023-07-02T00:22:20;99859.30;;;18.92;88.75
25944;BME280;13742;49.306;8.636;2023-07-02T00:23:20;99860.20;;;18.92;88.09
25944;BME280;13742;49.306;8.636;2023-07-02T00:24:19;99859.53;;;18.92;88.02
25944;BME280;13742;49.306;8.636;2023-07-02T00:25:20;99856.83;;;18.94;88.91
25944;BME280;13742;49.306;8.636;2023-07-02T00:26:19;99854.84;;;18.92;88.45
25944;BME280;13742;49.306;8.636;2023-07-02T00:27:19;99854.88;;;18.93;88.47
25944;BME280;13742;49.306;8.636;2023-07-02T00:28:19;99854.17;;;18.92;88.11
25944;BME280;13742;49.306;8.636;2023-07-02T00:29:19;99853.20;;;18.93;88.82
25944;BME280;13742;49.306;8.636;2023-07-02T00:30:19;99856.39;;;18.93;88.87
25944;BME280;13742;49.306;8.636;2023-07-02T00:31:19;99855.34;;;18.92;89.13
25944;BME280;13742;49.306;8.636;2023-07-02T00:32:20;99853.30;;;18.91;89.00
25944;BME280;13742;49.306;8.636;2023-07-02T00:33:19;99859.14;;;18.88;89.36
25944;BME280;13742;49.306;8.636;2023-07-02T00:34:19;99855.23;;;18.89;88.89
25944;BME280;13742;49.306;8.636;2023-07-02T00:35:19;99855.34;;;18.89;88.88
25944;BME280;13742;49.306;8.636;2023-07-02T00:36:19;99857.28;;;18.90;88.85
25944;BME280;13742;49.306;8.636;2023-07-02T00:37:19;99858.48;;;18.89;88.53
25944;BME280;13742;49.306;8.636;2023-07-02T00:38:20;99856.96;;;18.86;88.80
25944;BME280;13742;49.306;8.636;2023-07-02T00:39:19;99859.81;;;18.86;88.46
25944;BME280;13742;49.306;8.636;2023-07-02T00:40:20;99858.34;;;18.87;88.13
25944;BME280;13742;49.306;8.636;2023-07-02T00:41:19;99859.27;;;18.87;88.41
25944;BME280;13742;49.306;8.636;2023-07-02T00:42:20;99856.90;;;18.86;88.01
25944;BME280;13742;49.306;8.636;2023-07-02T00:43:19;99857.53;;;18.86;87.99
25944;BME280;13742;49.306;8.636;2023-07-02T00:44:19;99859.00;;;18.87;87.69
25944;BME280;13742;49.306;8.636;2023-07-02T00:45:19;99860.45;;;18.88;87.75
25944;BME280;13742;49.306;8.636;2023-07-02T00:46:25;99858.49;;;18.84;87.77
25944;BME280;13742;49.306;8.636;2023-07-02T00:47:19;99860.64;;;18.85;87.80
25944;BME280;13742;49.306;8.636;2023-07-02T00:48:19;99860.91;;;18.87;88.11
25944;BME280;13742;49.306;8.636;2023-07-02T00:49:20;99860.31;;;18.85;87.87
25944;BME280;13742;49.306;8.636;2023-07-02T00:50:21;99858.47;;;18.86;87.99
25944;BME280;13742;49.306;8.636;2023-07-02T00:51:20;99856.06;;;18.86;87.77
25944;BME280;13742;49.306;8.636;2023-07-02T00:52:20;99855.95;;;18.83;86.79
25944;BME280;13742;49.306;8.636;2023-07-02T00:53:19;99857.42;;;18.83;87.56
25944;BME280;13742;49.306;8.636;2023-07-02T00:54:19;99857.98;;;18.82;87.32
25944;BME280;13742;49.306;8.636;2023-07-02T00:55:20;99859.86;;;18.82;86.60
25944;BME280;13742;49.306;8.636;2023-07-02T00:56:20;99862.53;;;18.81;86.48
25944;BME280;13742;49.306;8.636;2023-07-02T00:57:19;99863.86;;;18.78;86.17
25944;BME280;13742;49.306;8.636;2023-07-02T00:58:20;99858.73;;;18.77;86.07
25944;BME280;13742;49.306;8.636;2023-07-02T00:59:19;99860.38;;;18.79;85.92
25944;BME280;13742;49.306;8.636;2023-07-02T01:00:20;99859.27;;;18.78;85.79
25944;BME280;13742;49.306;8.636;2023-07-02T01:01:21;99866.20;;;18.77;85.73
25944;BME280;13742;49.306;8.636;2023-07-02T01:02:19;99865.20;;;18.78;85.91
25944;BME280;13742;49.306;8.636;2023-07-02T01:03:19;99866.31;;;18.74;85.31
25944;BME280;13742;49.306;8.636;2023-07-02T01:04:19;99865.57;;;18.72;85.01
25944;BME280;13742;49.306;8.636;2023-07-02T01:05:21;99866.16;;;18.70;84.86
25944;BME280;13742;49.306;8.636;2023-07-02T01:06:25;99869.06;;;18.69;84.75
25944;BME280;13742;49.306;8.636;2023-07-02T01:07:19;99870.40;;;18.67;84.65
25944;BME280;13742;49.306;8.636;2023-07-02T01:08:19;99870.10;;;18.68;84.67
25944;BME280;13742;49.306;8.636;2023-07-02T01:09:19;99868.85;;;18.66;84.27
25944;BME280;13742;49.306;8.636;2023-07-02T01:10:19;99871.28;;;18.64;83.73
25944;BME280;13742;49.306;8.636;2023-07-02T01:11:20;99871.86;;;18.66;83.92
25944;BME280;13742;49.306;8.636;2023-07-02T01:12:21;99870.83;;;18.67;83.65
25944;BME280;13742;49.306;8.636;2023-07-02T01:13:20;99872.17;;;18.67;83.41
25944;BME280;13742;49.306;8.636;2023-07-02T01:14:26;99874.42;;;18.69;83.25
25944;BME280;13742;49.306;8.636;2023-07-02T01:15:19;99874.29;;;18.70;83.42
25944;BME280;13742;49.306;8.636;2023-07-02T01:16:20;99870.41;;;18.69;83.31
25944;BME280;13742;49.306;8.636;2023-07-02T01:17:19;99875.46;;;18.70;83.58
25944;BME280;13742;49.306;8.636;2023-07-02T01:18:19;99875.71;;;18.66;84.23
25944;BME280;13742;49.306;8.636;2023-07-02T01:20:22;99873.64;;;18.66;84.18
25944;BME280;13742;49.306;8.636;2023-07-02T01:21:20;99873.11;;;18.68;84.39
25944;BME280;13742;49.306;8.636;2023-07-02T01:22:20;99875.84;;;18.67;84.36
25944;BME280;13742;49.306;8.636;2023-07-02T01:23:19;99873.48;;;18.69;84.52
25944;BME280;13742;49.306;8.636;2023-07-02T01:24:21;99872.45;;;18.70;84.45
25944;BME280;13742;49.306;8.636;2023-07-02T01:25:24;99874.30;;;18.70;84.67
25944;BME280;13742;49.306;8.636;2023-07-02T01:26:20;99875.50;;;18.71;85.47
25944;BME280;13742;49.306;8.636;2023-07-02T01:27:20;99874.53;;;18.72;85.88
25944;BME280;13742;49.306;8.636;2023-07-02T01:28:19;99875.81;;;18.73;85.43
25944;BME280;13742;49.306;8.636;2023-07-02T01:29:20;99875.56;;;18.71;86.09
25944;BME280;13742;49.306;8.636;2023-07-02T01:30:20;99875.91;;;18.71;85.76
25944;BME280;13742;49.306;8.636;2023-07-02T01:31:24;99875.10;;;18.72;85.74
25944;BME280;13742;49.306;8.636;2023-07-02T01:32:20;99878.48;;;18.73;85.88
25944;BME280;13742;49.306;8.636;2023-07-02T01:33:19;99875.76;;;18.69;86.58
25944;BME280;13742;49.306;8.636;2023-07-02T01:34:19;99877.47;;;18.70;86.49
25944;BME280;13742;49.306;8.636;2023-07-02T01:35:19;99878.68;;;18.71;86.42
25944;BME280;13742;49.306;8.636;2023-07-02T01:36:19;99880.36;;;18.74;86.61
25944;BME280;13742;49.306;8.636;2023-07-02T01:37:19;99881.58;;;18.75;87.12
25944;BME280;13742;49.306;8.636;2023-07-02T01:38:19;99884.02;;;18.75;86.58
25944;BME280;13742;49.306;8.636;2023-07-02T01:39:19;99884.91;;;18.75;86.95
25944;BME280;13742;49.306;8.636;2023-07-02T01:40:19;99881.47;;;18.75;87.08
25944;BME280;13742;49.306;8.636;2023-07-02T01:41:19;99881.27;;;18.73;87.04
25944;BME280;13742;49.306;8.636;2023-07-02T01:42:20;99881.27;;;18.74;86.86
25944;BME280;13742;49.306;8.636;2023-07-02T01:43:20;99883.31;;;18.74;87.57
25944;BME280;13742;49.306;8.636;2023-07-02T01:44:20;99885.79;;;18.76;87.30
25944;BME280;13742;49.306;8.636;2023-07-02T01:45:19;99880.77;;;18.76;86.77
25944;BME280;13742;49.306;8.636;2023-07-02T01:46:20;99879.81;;;18.77;86.69
25944;BME280;13742;49.306;8.636;2023-07-02T01:47:19;99882.60;;;18.73;87.43
25944;BME280;13742;49.306;8.636;2023-07-02T01:48:19;99885.20;;;18.71;88.28
25944;BME280;13742;49.306;8.636;2023-07-02T01:49:19;99885.24;;;18.73;87.59
25944;BME280;13742;49.306;8.636;2023-07-02T01:50:19;99887.05;;;18.71;87.65
25944;BME280;13742;49.306;8.636;2023-07-02T01:51:19;99890.22;;;18.71;87.93
25944;BME280;13742;49.306;8.636;2023-07-02T01:52:19;99890.02;;;18.70;88.22
25944;BME280;13742;49.306;8.636;2023-07-02T01:53:19;99890.00;;;18.68;88.21
25944;BME280;13742;49.306;8.636;2023-07-02T01:54:20;99889.01;;;18.70;87.67
25944;BME280;13742;49.306;8.636;2023-07-02T01:55:19;99888.21;;;18.71;87.95
25944;BME280;13742;49.306;8.636;2023-07-02T01:56:19;99892.03;;;18.73;88.23
25944;BME280;13742;49.306;8.636;2023-07-02T01:57:19;99892.03;;;18.73;87.88
25944;BME280;13742;49.306;8.636;2023-07-02T01:58:20;99890.86;;;18.73;88.01
25944;BME280;13742;49.306;8.636;2023-07-02T01:59:19;99893.03;;;18.73;88.42
25944;BME280;13742;49.306;8.636;2023-07-02T02:00:19;99892.00;;;18.72;88.46
25944;BME280;13742;49.306;8.636;2023-07-02T02:01:19;99892.03;;;18.73;88.29
25944;BME280;13742;49.306;8.636;2023-07-02T02:02:19;99891.56;;;18.71;88.07
25944;BME280;13742;49.306;8.636;2023-07-02T02:03:19;99889.84;;;18.70;88.11
25944;BME280;13742;49.306;8.636;2023-07-02T02:04:19;99889.72;;;18.71;87.54
25944;BME280;13742;49.306;8.636;2023-07-02T02:05:19;99892.56;;;18.72;87.92
25944;BME280;13742;49.306;8.636;2023-07-02T02:06:20;99894.99;;;18.69;87.77
25944;BME280;13742;49.306;8.636;2023-07-02T02:07:19;99894.79;;;18.68;87.72
25944;BME280;13742;49.306;8.636;2023-07-02T02:08:19;99897.80;;;18.68;87.71
25944;BME280;13742;49.306;8.636;2023-07-02T02:09:19;99895.08;;;18.67;87.42
25944;BME280;13742;49.306;8.636;2023-07-02T02:10:19;99898.33;;;18.67;87.67
25944;BME280;13742;49.306;8.636;2023-07-02T02:11:19;99896.98;;;18.67;87.31
25944;BME280;13742;49.306;8.636;2023-07-02T02:12:19;99898.59;;;18.67;87.31
25944;BME280;13742;49.306;8.636;2023-07-02T02:13:19;99897.00;;;18.69;87.17
25944;BME280;13742;49.306;8.636;2023-07-02T02:14:19;99899.45;;;18.70;87.19
25944;BME280;13742;49.306;8.636;2023-07-02T02:15:19;99898.80;;;18.66;87.21
25944;BME280;13742;49.306;8.636;2023-07-02T02:16:19;99902.13;;;18.66;86.87
25944;BME280;13742;49.306;8.636;2023-07-02T02:17:19;99900.61;;;18.63;86.48
25944;BME280;13742;49.306;8.636;2023-07-02T02:18:19;99903.06;;;18.63;86.84
25944;BME280;13742;49.306;8.636;2023-07-02T02:19:19;99903.09;;;18.65;86.74
25944;BME280;13742;49.306;8.636;2023-07-02T02:20:19;99904.96;;;18.63;86.88
25944;BME280;13742;49.306;8.636;2023-07-02T02:21:20;99904.11;;;18.60;85.58
25944;BME280;13742;49.306;8.636;2023-07-02T02:22:19;99903.73;;;18.60;85.45
25944;BME280;13742;49.306;8.636;2023-07-02T02:23:19;99903.31;;;18.61;85.45
25944;BME280;13742;49.306;8.636;2023-07-02T02:24:19;99902.41;;;18.62;85.02
25944;BME280;13742;49.306;8.636;2023-07-02T02:25:19;99901.60;;;18.61;83.98
25944;BME280;13742;49.306;8.636;2023-07-02T02:26:21;99901.38;;;18.58;82.68
25944;BME280;13742;49.306;8.636;2023-07-02T02:27:19;99898.92;;;18.58;82.93
25944;BME280;13742;49.306;8.636;2023-07-02T02:28:19;99900.80;;;18.59;83.03
25944;BME280;13742;49.306;8.636;2023-07-02T02:29:19;99899.53;;;18.61;82.97
25944;BME280;13742;49.306;8.636;2023-07-02T02:30:19;99901.63;;;18.59;81.66
25944;BME280;13742;49.306;8.636;2023-07-02T02:31:19;99895.11;;;18.59;81.66
25944;BME280;13742;49.306;8.636;2023-07-02T02:32:21;99897.55;;;18.59;81.42
25944;BME280;13742;49.306;8.636;2023-07-02T02:33:20;99894.74;;;18.60;81.39
25944;BME280;13742;49.306;8.636;2023-07-02T02:34:19;99898.92;;;18.60;81.27
25944;BME280;13742;49.306;8.636;2023-07-02T02:35:19;99893.68;;;18.61;81.29
25944;BME280;13742;49.306;8.636;2023-07-02T02:36:19;99894.33;;;18.63;81.24
25944;BME280;13742;49.306;8.636;2023-07-02T02:37:20;99897.81;;;18.64;81.13
25944;BME280;13742;49.306;8.636;2023-07-02T02:38:19;99895.11;;;18.66;81.05
25944;BME280;13742;49.306;8.636;2023-07-02T02:39:19;99895.34;;;18.65;80.58
25944;BME280;13742;49.306;8.636;2023-07-02T02:40:19;99891.59;;;18.66;80.40
25944;BME280;13742;49.306;8.636;2023-07-02T02:41:19;99894.78;;;18.66;80.22
25944;BME280;13742;49.306;8.636;2023-07-02T02:42:19;99893.58;;;18.67;79.97
25944;BME280;13742;49.306;8.636;2023-07-02T02:43:20;99895.67;;;18.65;79.38
25944;BME280;13742;49.306;8.636;2023-07-02T02:44:19;99895.53;;;18.63;79.45
25944;BME280;13742;49.306;8.636;2023-07-02T02:45:19;99893.53;;;18.64;79.28
25944;BME280;13742;49.306;8.636;2023-07-02T02:46:20;99895.07;;;18.65;79.46
25944;BME280;13742;49.306;8.636;2023-07-02T02:47:19;99897.54;;;18.64;79.44
25944;BME280;13742;49.306;8.636;2023-07-02T02:48:19;99894.41;;;18.60;79.18
25944;BME280;13742;49.306;8.636;2023-07-02T02:49:19;99896.48;;;18.54;78.72
25944;BME280;13742;49.306;8.636;2023-07-02T02:50:19;99896.13;;;18.57;78.87
25944;BME280;13742;49.306;8.636;2023-07-02T02:51:20;99898.84;;;18.58;78.83
25944;BME280;13742;49.306;8.636;2023-07-02T02:52:19;99893.52;;;18.57;78.51
25944;BME280;13742;49.306;8.636;2023-07-02T02:53:19;99896.09;;;18.57;78.49
25944;BME280;13742;49.306;8.636;2023-07-02T02:54:19;99900.08;;;18.58;78.52
25944;BME280;13742;49.306;8.636;2023-07-02T02:55:19;99899.29;;;18.59;78.57
25944;BME280;13742;49.306;8.636;2023-07-02T02:56:19;99900.89;;;18.60;78.42
25944;BME280;13742;49.306;8.636;2023-07-02T02:57:19;99897.09;;;18.61;78.32
25944;BME280;13742;49.306;8.636;2023-07-02T02:58:19;99896.69;;;18.61;78.21
25944;BME280;13742;49.306;8.636;2023-07-02T02:59:19;99897.86;;;18.61;78.30
25944;BME280;13742;49.306;8.636;2023-07-02T03:00:19;99895.85;;;18.61;78.10
25944;BME280;13742;49.306;8.636;2023-07-02T03:01:19;99895.14;;;18.60;77.97
25944;BME280;13742;49.306;8.636;2023-07-02T03:02:19;99894.33;;;18.58;78.08
25944;BME280;13742;49.306;8.636;2023-07-02T03:03:20;99895.57;;;18.58;78.14
25944;BME280;13742;49.306;8.636;2023-07-02T03:04:24;99894.55;;;18.60;78.25
25944;BME280;13742;49.306;8.636;2023-07-02T03:05:19;99897.88;;;18.59;77.84
25944;BME280;13742;49.306;8.636;2023-07-02T03:06:19;99897.72;;;18.60;77.89
25944;BME280;13742;49.306;8.636;2023-07-02T03:07:19;99901.17;;;18.60;78.06
25944;BME280;13742;49.306;8.636;2023-07-02T03:08:19;99899.03;;;18.61;78.23
25944;BME280;13742;49.306;8.636;2023-07-02T03:09:19;99901.98;;;18.62;78.32
25944;BME280;13742;49.306;8.636;2023-07-02T03:10:19;99900.34;;;18.62;78.46
25944;BME280;13742;49.306;8.636;2023-07-02T03:11:19;99899.38;;;18.63;78.66
25944;BME280;13742;49.306;8.636;2023-07-02T03:12:19;99899.66;;;18.64;79.00
25944;BME280;13742;49.306;8.636;2023-07-02T03:13:19;99900.75;;;18.65;79.11
25944;BME280;13742;49.306;8.636;2023-07-02T03:14:19;99904.48;;;18.66;79.42
25944;BME280;13742;49.306;8.636;2023-07-02T03:15:19;99905.41;;;18.66;79.67
25944;BME280;13742;49.306;8.636;2023-07-02T03:16:21;99908.02;;;18.64;79.60
25944;BME280;13742;49.306;8.636;2023-07-02T03:17:20;99909.58;;;18.63;79.74
25944;BME280;13742;49.306;8.636;2023-07-02T03:18:19;99913.83;;;18.63;80.33
25944;BME280;13742;49.306;8.636;2023-07-02T03:19:19;99917.44;;;18.63;80.24
25944;BME280;13742;49.306;8.636;2023-07-02T03:20:19;99921.48;;;18.62;80.61
25944;BME280;13742;49.306;8.636;2023-07-02T03:21:19;99928.24;;;18.58;80.26
25944;BME280;13742;49.306;8.636;2023-07-02T03:22:19;99929.14;;;18.57;79.71
25944;BME280;13742;49.306;8.636;2023-07-02T03:23:19;99925.15;;;18.55;79.46
25944;BME280;13742;49.306;8.636;2023-07-02T03:24:19;99924.76;;;18.52;78.84
25944;BME280;13742;49.306;8.636;2023-07-02T03:25:19;99921.94;;;18.50;78.95
25944;BME280;13742;49.306;8.636;2023-07-02T03:26:20;99923.41;;;18.49;78.92
25944;BME280;13742;49.306;8.636;2023-07-02T03:27:19;99922.55;;;18.47;78.82
25944;BME280;13742;49.306;8.636;2023-07-02T03:28:19;99922.30;;;18.42;78.97
25944;BME280;13742;49.306;8.636;2023-07-02T03:29:20;99923.90;;;18.43;79.00
25944;BME280;13742;49.306;8.636;2023-07-02T03:30:19;99924.11;;;18.39;78.97
25944;BME280;13742;49.306;8.636;2023-07-02T03:31:19;99926.45;;;18.40;79.09
25944;BME280;13742;49.306;8.636;2023-07-02T03:32:19;99924.95;;;18.39;79.10
25944;BME280;13742;49.306;8.636;2023-07-02T03:33:19;99923.17;;;18.39;79.09
25944;BME280;13742;49.306;8.636;2023-07-02T03:34:19;99920.02;;;18.37;79.11
25944;BME280;13742;49.306;8.636;2023-07-02T03:35:19;99920.52;;;18.34;79.38
25944;BME280;13742;49.306;8.636;2023-07-02T03:36:19;99920.59;;;18.33;79.41
25944;BME280;13742;49.306;8.636;2023-07-02T03:37:19;99919.48;;;18.33;79.41
25944;BME280;13742;49.306;8.636;2023-07-02T03:38:19;99915.98;;;18.24;80.02
25944;BME280;13742;49.306;8.636;2023-07-02T03:39:19;99915.14;;;18.29;79.89
25944;BME280;13742;49.306;8.636;2023-07-02T03:40:19;99920.28;;;18.27;79.32
25944;BME280;13742;49.306;8.636;2023-07-02T03:41:19;99918.65;;;18.28;79.11
25944;BME280;13742;49.306;8.636;2023-07-02T03:42:19;99916.91;;;18.28;79.07
25944;BME280;13742;49.306;8.636;2023-07-02T03:43:19;99917.33;;;18.30;79.20
25944;BME280;13742;49.306;8.636;2023-07-02T03:44:20;99916.77;;;18.32;78.99
25944;BME280;13742;49.306;8.636;2023-07-02T03:45:19;99919.19;;;18.33;78.91
25944;BME280;13742;49.306;8.636;2023-07-02T03:46:20;99929.41;;;18.32;78.19
25944;BME280;13742;49.306;8.636;2023-07-02T03:47:19;99928.41;;;18.32;78.15
25944;BME280;13742;49.306;8.636;2023-07-02T03:48:19;99931.95;;;18.33;78.29
25944;BME280;13742;49.306;8.636;2023-07-02T03:49:19;99930.49;;;18.34;78.20
25944;BME280;13742;49.306;8.636;2023-07-02T03:50:19;99932.88;;;18.35;78.27
25944;BME280;13742;49.306;8.636;2023-07-02T03:51:19;99932.88;;;18.35;78.37
25944;BME280;13742;49.306;8.636;2023-07-02T03:52:19;99937.82;;;18.35;78.00
25944;BME280;13742;49.306;8.636;2023-07-02T03:53:19;99941.91;;;18.35;77.74
25944;BME280;13742;49.306;8.636;2023-07-02T03:54:19;99941.25;;;18.34;77.83
25944;BME280;13742;49.306;8.636;2023-07-02T03:55:20;99945.64;;;18.34;77.85
25944;BME280;13742;49.306;8.636;2023-07-02T03:56:19;99948.19;;;18.35;77.92
25944;BME280;13742;49.306;8.636;2023-07-02T03:57:19;99949.30;;;18.32;78.34
25944;BME280;13742;49.306;8.636;2023-07-02T03:58:19;99951.59;;;18.30;78.21
25944;BME280;13742;49.306;8.636;2023-07-02T03:59:19;99951.42;;;18.30;78.59
25944;BME280;13742;49.306;8.636;2023-07-02T04:00:19;99954.75;;;18.32;78.43
25944;BME280;13742;49.306;8.636;2023-07-02T04:01:19;99955.92;;;18.32;78.28
25944;BME280;13742;49.306;8.636;2023-07-02T04:02:19;99959.66;;;18.32;78.12
25944;BME280;13742;49.306;8.636;2023-07-02T04:03:19;99961.38;;;18.25;78.23
25944;BME280;13742;49.306;8.636;2023-07-02T04:04:19;99965.89;;;18.21;78.47
25944;BME280;13742;49.306;8.636;2023-07-02T04:05:20;99966.20;;;18.23;78.43
25944;BME280;13742;49.306;8.636;2023-07-02T04:06:19;99964.50;;;18.18;78.83
25944;BME280;13742;49.306;8.636;2023-07-02T04:07:19;99965.61;;;18.18;79.08
25944;BME280;13742;49.306;8.636;2023-07-02T04:08:21;99965.35;;;18.16;79.28
25944;BME280;13742;49.306;8.636;2023-07-02T04:09:19;99962.74;;;18.16;79.31
25944;BME280;13742;49.306;8.636;2023-07-02T04:10:19;99965.03;;;18.15;79.27
25944;BME280;13742;49.306;8.636;2023-07-02T04:11:19;99961.55;;;18.13;79.29
25944;BME280;13742;49.306;8.636;2023-07-02T04:12:19;99966.27;;;18.14;79.36
25944;BME280;13742;49.306;8.636;2023-07-02T04:13:19;99963.64;;;18.15;79.39
25944;BME280;13742;49.306;8.636;2023-07-02T04:14:19;99968.88;;;18.15;79.46
25944;BME280;13742;49.306;8.636;2023-07-02T04:15:19;99966.29;;;18.13;79.35
25944;BME280;13742;49.306;8.636;2023-07-02T04:16:19;99970.03;;;18.12;79.37
25944;BME280;13742;49.306;8.636;2023-07-02T04:17:19;99970.27;;;18.08;79.33
25944;BME280;13742;49.306;8.636;2023-07-02T04:18:19;99973.17;;;18.05;79.53
25944;BME280;13742;49.306;8.636;2023-07-02T04:19:19;99975.73;;;18.07;79.41
25944;BME280;13742;49.306;8.636;2023-07-02T04:20:20;99978.06;;;18.06;79.69
25944;BME280;13742;49.306;8.636;2023-07-02T04:21:20;99975.19;;;18.02;79.87
25944;BME280;13742;49.306;8.636;2023-07-02T04:22:19;99979.42;;;18.01;79.80
25944;BME280;13742;49.306;8.636;2023-07-02T04:23:19;99984.03;;;18.02;79.59
25944;BME280;13742;49.306;8.636;2023-07-02T04:24:19;99981.53;;;18.01;79.75
25944;BME280;13742;49.306;8.636;2023-07-02T04:25:19;99983.83;;;18.01;79.96
25944;BME280;13742;49.306;8.636;2023-07-02T04:26:19;99983.18;;;17.99;79.97
25944;BME280;13742;49.306;8.636;2023-07-02T04:27:37;99981.67;;;17.95;80.20
25944;BME280;13742;49.306;8.636;2023-07-02T04:28:19;99981.42;;;17.97;80.14
25944;BME280;13742;49.306;8.636;2023-07-02T04:29:20;99981.10;;;17.95;79.99
25944;BME280;13742;49.306;8.636;2023-07-02T04:30:19;99985.55;;;17.96;80.06
25944;BME280;13742;49.306;8.636;2023-07-02T04:31:19;99990.09;;;17.95;80.12
25944;BME280;13742;49.306;8.636;2023-07-02T04:32:19;99989.55;;;17.92;80.53
25944;BME280;13742;49.306;8.636;2023-07-02T04:33:19;99989.47;;;17.90;80.43
25944;BME280;13742;49.306;8.636;2023-07-02T04:34:21;99991.40;;;17.92;80.32
25944;BME280;13742;49.306;8.636;2023-07-02T04:35:19;99991.14;;;17.94;80.25
25944;BME280;13742;49.306;8.636;2023-07-02T04:36:19;99992.86;;;17.95;80.21
25944;BME280;13742;49.306;8.636;2023-07-02T04:37:22;99989.70;;;17.93;79.99
25944;BME280;13742;49.306;8.636;2023-07-02T04:38:19;99989.98;;;17.94;79.94
25944;BME280;13742;49.306;8.636;2023-07-02T04:39:19;99992.66;;;17.92;79.30
25944;BME280;13742;49.306;8.636;2023-07-02T04:40:19;99989.43;;;17.93;79.12
25944;BME280;13742;49.306;8.636;2023-07-02T04:41:19;99992.44;;;17.93;79.43
25944;BME280;13742;49.306;8.636;2023-07-02T04:42:19;99995.42;;;17.90;79.47
25944;BME280;13742;49.306;8.636;2023-07-02T04:43:19;99996.05;;;17.93;79.46
25944;BME280;13742;49.306;8.636;2023-07-02T04:44:21;99997.90;;;17.94;79.53
25944;BME280;13742;49.306;8.636;2023-07-02T04:45:19;100002.80;;;17.97;79.36
25944;BME280;13742;49.306;8.636;2023-07-02T04:46:19;100001.95;;;17.94;79.26
25944;BME280;13742;49.306;8.636;2023-07-02T04:47:19;100003.87;;;17.93;79.50
25944;BME280;13742;49.306;8.636;2023-07-02T04:48:20;100003.50;;;17.96;79.46
25944;BME280;13742;49.306;8.636;2023-07-02T04:49:19;100006.30;;;17.99;79.89
25944;BME280;13742;49.306;8.636;2023-07-02T04:50:19;100004.02;;;18.02;79.57
25944;BME280;13742;49.306;8.636;2023-07-02T04:51:20;100004.34;;;18.04;79.44
25944;BME280;13742;49.306;8.636;2023-07-02T04:52:19;100004.51;;;18.07;79.35
25944;BME280;13742;49.306;8.636;2023-07-02T04:53:19;100004.35;;;18.08;79.17
25944;BME280;13742;49.306;8.636;2023-07-02T04:54:20;100006.75;;;18.07;78.67
25944;BME280;13742;49.306;8.636;2023-07-02T04:55:19;100007.61;;;18.10;78.57
25944;BME280;13742;49.306;8.636;2023-07-02T04:56:19;100010.33;;;18.11;78.60
25944;BME280;13742;49.306;8.636;2023-07-02T04:57:19;100008.59;;;18.11;78.48
25944;BME280;13742;49.306;8.636;2023-07-02T04:58:19;100012.48;;;18.12;78.11
25944;BME280;13742;49.306;8.636;2023-07-02T04:59:20;100016.97;;;18.10;77.79
25944;BME280;13742;49.306;8.636;2023-07-02T05:00:19;100016.39;;;18.12;77.82
25944;BME280;13742;49.306;8.636;2023-07-02T05:01:19;100020.69;;;18.15;78.16
25944;BME280;13742;49.306;8.636;2023-07-02T05:02:19;100020.41;;;18.14;77.57
25944;BME280;13742;49.306;8.636;2023-07-02T05:03:19;100022.73;;;18.12;77.70
25944;BME280;13742;49.306;8.636;2023-07-02T05:04:19;100022.34;;;18.17;77.83
25944;BME280;13742;49.306;8.636;2023-07-02T05:05:19;100020.56;;;18.16;77.60
25944;BME280;13742;49.306;8.636;2023-07-02T05:06:19;100022.03;;;18.19;77.75
25944;BME280;13742;49.306;8.636;2023-07-02T05:07:19;100021.38;;;18.18;77.54
25944;BME280;13742;49.306;8.636;2023-07-02T05:08:19;100022.59;;;18.19;77.52
25944;BME280;13742;49.306;8.636;2023-07-02T05:09:19;100025.75;;;18.20;77.49
25944;BME280;13742;49.306;8.636;2023-07-02T05:10:19;100026.65;;;18.23;77.72
25944;BME280;13742;49.306;8.636;2023-07-02T05:11:19;100029.06;;;18.24;77.65
25944;BME280;13742;49.306;8.636;2023-07-02T05:12:19;100029.47;;;18.21;77.35
25944;BME280;13742;49.306;8.636;2023-07-02T05:13:19;100028.42;;;18.24;77.28
25944;BME280;13742;49.306;8.636;2023-07-02T05:14:19;100031.03;;;18.24;77.07
25944;BME280;13742;49.306;8.636;2023-07-02T05:15:19;100027.59;;;18.24;76.99
25944;BME280;13742;49.306;8.636;2023-07-02T05:16:19;100029.11;;;18.26;77.29
25944;BME280;13742;49.306;8.636;2023-07-02T05:17:19;100032.67;;;18.27;77.35
25944;BME280;13742;49.306;8.636;2023-07-02T05:18:19;100032.41;;;18.24;76.74